Time;durP1;ratioP1;P1;durP2;ratioP2;P2;SDS_P1;SDS_P2;PMS_P1;PMS_P2;Temp;Humidity;BMP_temperature;BMP_pressure;BME280_temperature;BME280_humidity;BME280_pressure;Samples;Min_cycle;Max_cycle;Signal;HPM_P1;HPM_P2
2021/04/30 00:01:36;;;;;;;6.23;5.63;;;8.20;99.90;;;;;;4912851;29;20463;-77
2021/04/30 00:04:02;;;;;;;5.40;4.90;;;8.20;99.90;;;;;;4895371;29;20499;-77
2021/04/30 00:06:27;;;;;;;5.73;5.10;;;8.20;99.90;;;;;;4912564;29;20419;-77
2021/04/30 00:08:53;;;;;;;5.30;4.80;;;8.20;99.90;;;;;;4911319;29;20479;-77
2021/04/30 00:11:19;;;;;;;5.90;4.90;;;8.20;99.90;;;;;;4894986;29;20416;-77
2021/04/30 00:13:44;;;;;;;5.93;5.30;;;8.10;99.90;;;;;;4914277;29;20402;-76
2021/04/30 00:16:11;;;;;;;5.60;5.03;;;8.10;99.90;;;;;;4896776;29;20422;-77
2021/04/30 00:18:36;;;;;;;5.65;5.07;;;8.00;99.90;;;;;;4898989;29;20419;-77
2021/04/30 00:21:02;;;;;;;5.57;5.05;;;8.00;99.90;;;;;;4902037;29;20415;-77
2021/04/30 00:23:29;;;;;;;5.93;5.30;;;8.00;99.90;;;;;;4905772;29;20406;-77
2021/04/30 00:25:56;;;;;;;5.88;5.35;;;7.90;99.90;;;;;;4908803;29;20925;-76
2021/04/30 00:28:22;;;;;;;6.28;5.68;;;7.80;99.90;;;;;;4913394;29;22101;-77
2021/04/30 00:30:48;;;;;;;6.20;5.60;;;7.80;99.90;;;;;;4910760;29;20412;-76
2021/04/30 00:33:14;;;;;;;6.07;5.47;;;7.80;99.90;;;;;;4902380;29;20420;-76
2021/04/30 00:35:41;;;;;;;6.05;5.45;;;7.80;99.90;;;;;;4895688;29;20436;-76
2021/04/30 00:38:07;;;;;;;6.78;5.75;;;7.60;99.90;;;;;;4897425;29;20412;-76
2021/04/30 00:40:32;;;;;;;6.00;5.40;;;7.60;99.90;;;;;;4918637;29;20407;-76
2021/04/30 00:42:58;;;;;;;5.60;5.10;;;7.50;99.90;;;;;;4929947;29;20419;-76
2021/04/30 00:45:24;;;;;;;6.25;5.60;;;7.50;99.90;;;;;;4899778;29;20431;-76
2021/04/30 00:47:51;;;;;;;6.68;6.05;;;7.40;99.90;;;;;;4914039;29;20395;-76
2021/04/30 00:50:17;;;;;;;6.53;5.93;;;7.30;99.90;;;;;;4898296;29;20943;-77
2021/04/30 00:52:42;;;;;;;6.23;5.63;;;7.30;99.90;;;;;;4881035;29;20404;-77
2021/04/30 00:55:10;;;;;;;7.22;5.82;;;7.30;99.90;;;;;;4911801;29;20514;-77
2021/04/30 00:57:36;;;;;;;6.22;5.63;;;7.30;99.90;;;;;;4900718;29;20427;-77
2021/04/30 01:00:03;;;;;;;5.88;5.38;;;7.20;99.90;;;;;;4897101;29;20481;-77
2021/04/30 01:02:29;;;;;;;6.28;5.70;;;7.20;99.90;;;;;;4895023;29;20396;-77
2021/04/30 01:04:54;;;;;;;6.50;5.90;;;7.10;99.90;;;;;;4911036;29;20844;-76
2021/04/30 01:07:20;;;;;;;7.13;5.88;;;7.10;99.90;;;;;;4910997;29;20423;-77
2021/04/30 01:09:46;;;;;;;6.63;5.83;;;7.00;99.90;;;;;;4898484;29;20415;-77
2021/04/30 01:12:11;;;;;;;6.80;5.53;;;7.00;99.90;;;;;;4891587;29;20404;-77
2021/04/30 01:14:37;;;;;;;6.68;5.90;;;7.00;99.90;;;;;;4895610;29;20570;-76
2021/04/30 01:17:03;;;;;;;6.40;5.80;;;7.00;99.90;;;;;;4917068;29;20397;-77
2021/04/30 01:19:30;;;;;;;5.78;5.28;;;7.00;99.90;;;;;;4898960;29;20408;-77
2021/04/30 01:21:56;;;;;;;6.15;5.57;;;7.00;99.90;;;;;;4896953;29;20404;-77
2021/04/30 01:24:22;;;;;;;6.45;5.10;;;7.00;99.90;;;;;;4909686;29;20419;-77
2021/04/30 01:26:48;;;;;;;7.93;5.85;;;6.90;99.90;;;;;;4916158;29;20417;-77
2021/04/30 01:29:14;;;;;;;6.65;6.05;;;6.90;99.90;;;;;;4894666;29;20453;-77
2021/04/30 01:31:40;;;;;;;6.80;6.10;;;6.90;99.90;;;;;;4896210;29;20430;-77
2021/04/30 01:34:05;;;;;;;6.60;5.70;;;6.80;99.90;;;;;;4913550;29;20433;-77
2021/04/30 01:36:31;;;;;;;7.50;6.43;;;6.80;99.90;;;;;;4896509;29;20929;-77
2021/04/30 01:39:02;;;;;;;6.00;5.40;;;6.70;99.90;;;;;;4918558;29;20420;-77
2021/04/30 01:41:27;;;;;;;7.80;6.60;;;6.70;99.90;;;;;;4911985;29;20479;-77
2021/04/30 01:43:54;;;;;;;7.90;6.27;;;6.80;99.90;;;;;;4914045;29;20473;-76
2021/04/30 01:46:20;;;;;;;7.05;5.95;;;6.70;99.90;;;;;;4912614;29;20408;-77
2021/04/30 01:48:45;;;;;;;7.63;5.87;;;6.70;99.90;;;;;;4899067;29;20484;-76
2021/04/30 01:51:11;;;;;;;6.55;5.93;;;6.70;99.90;;;;;;4897178;29;20395;-76
2021/04/30 01:53:37;;;;;;;7.20;6.17;;;6.70;99.90;;;;;;4915984;29;20409;-77
2021/04/30 01:56:05;;;;;;;6.37;5.77;;;6.70;99.90;;;;;;4931998;29;20402;-76
2021/04/30 01:58:30;;;;;;;6.55;5.95;;;6.70;99.90;;;;;;4915172;29;20403;-77
2021/04/30 02:00:58;;;;;;;7.45;6.63;;;6.80;99.90;;;;;;4913850;29;20415;-77
2021/04/30 02:03:24;;;;;;;6.75;5.93;;;6.80;99.90;;;;;;4913738;29;20495;-77
2021/04/30 02:05:50;;;;;;;6.53;5.82;;;6.80;99.90;;;;;;4909700;29;20399;-77
2021/04/30 02:08:15;;;;;;;7.28;5.90;;;6.80;99.90;;;;;;4915656;29;20934;-76
2021/04/30 02:10:42;;;;;;;6.40;5.85;;;6.80;99.90;;;;;;4912284;29;20410;-77
2021/04/30 02:13:08;;;;;;;7.50;6.18;;;6.90;99.90;;;;;;4895925;29;20415;-77
2021/04/30 02:15:38;;;;;;;7.28;6.28;;;6.80;99.90;;;;;;4916360;29;20407;-76
2021/04/30 02:18:03;;;;;;;6.80;6.10;;;6.90;99.90;;;;;;4920213;29;21016;-77
2021/04/30 02:20:29;;;;;;;6.53;5.93;;;6.90;99.90;;;;;;4879120;29;20447;-77
2021/04/30 02:22:55;;;;;;;7.27;6.57;;;6.90;99.90;;;;;;4898323;29;20475;-77
2021/04/30 02:25:21;;;;;;;5.97;5.43;;;6.90;99.90;;;;;;4882005;29;20412;-76
2021/04/30 02:27:47;;;;;;;5.75;5.22;;;7.00;99.90;;;;;;4925447;29;20407;-76
2021/04/30 02:30:15;;;;;;;5.90;5.30;;;6.90;99.90;;;;;;4910842;29;20930;-76
2021/04/30 02:32:40;;;;;;;5.73;5.23;;;6.90;99.90;;;;;;4910426;29;20399;-77
2021/04/30 02:35:08;;;;;;;5.47;4.97;;;6.90;99.90;;;;;;4894103;29;20817;-77
2021/04/30 02:37:34;;;;;;;5.50;5.00;;;7.00;99.90;;;;;;4897761;29;20466;-76
2021/04/30 02:40:00;;;;;;;6.03;5.53;;;7.00;99.90;;;;;;4898323;29;20403;-76
2021/04/30 02:42:25;;;;;;;5.57;5.07;;;7.00;99.90;;;;;;4878567;29;20408;-77
2021/04/30 02:44:51;;;;;;;6.35;5.57;;;7.00;99.90;;;;;;4902620;29;20415;-77
2021/04/30 02:47:17;;;;;;;5.80;5.30;;;7.00;99.90;;;;;;4879243;29;20400;-76
2021/04/30 02:49:45;;;;;;;6.77;6.10;;;7.00;99.90;;;;;;4892642;29;20445;-77
2021/04/30 02:52:12;;;;;;;6.03;5.43;;;7.10;99.90;;;;;;4895232;29;20420;-77
2021/04/30 02:54:37;;;;;;;5.63;5.13;;;7.00;99.90;;;;;;4893455;29;21111;-77
2021/04/30 02:57:03;;;;;;;5.85;5.30;;;7.00;99.90;;;;;;4894855;29;20433;-77
2021/04/30 02:59:29;;;;;;;5.50;5.00;;;7.00;99.90;;;;;;4914988;29;20508;-77
2021/04/30 03:01:55;;;;;;;5.60;5.10;;;7.00;99.90;;;;;;4871988;29;20963;-77
2021/04/30 03:04:21;;;;;;;6.90;5.60;;;7.00;99.90;;;;;;4879559;29;21202;-77
2021/04/30 03:06:46;;;;;;;5.85;5.13;;;7.00;99.90;;;;;;4899252;29;20434;-77
2021/04/30 03:09:12;;;;;;;5.75;5.18;;;7.00;99.90;;;;;;4895058;29;20403;-77
2021/04/30 03:11:38;;;;;;;6.30;5.20;;;7.00;99.90;;;;;;4913401;29;20932;-77
2021/04/30 03:14:04;;;;;;;5.90;4.87;;;6.90;99.90;;;;;;4892442;29;20512;-77
2021/04/30 03:16:29;;;;;;;7.38;5.72;;;6.90;99.90;;;;;;4895177;29;20446;-77
2021/04/30 03:18:55;;;;;;;5.60;5.10;;;6.90;99.90;;;;;;4910032;29;20475;-77
2021/04/30 03:21:21;;;;;;;5.90;5.30;;;6.90;99.90;;;;;;4897081;29;20400;-77
2021/04/30 03:23:46;;;;;;;5.63;5.13;;;6.90;99.90;;;;;;4881438;29;20409;-77
2021/04/30 03:26:12;;;;;;;6.13;5.53;;;6.90;99.90;;;;;;4927159;29;21400;-77
2021/04/30 03:28:38;;;;;;;5.70;5.20;;;6.90;99.90;;;;;;4911707;29;20403;-77
2021/04/30 03:31:03;;;;;;;6.60;5.90;;;6.90;99.90;;;;;;4905762;29;20404;-78
2021/04/30 03:33:29;;;;;;;6.00;5.50;;;6.90;99.90;;;;;;4903844;29;20404;-77
2021/04/30 03:35:55;;;;;;;5.90;5.27;;;6.90;99.90;;;;;;4897993;29;20967;-77
2021/04/30 03:38:20;;;;;;;6.30;5.70;;;6.90;99.90;;;;;;4900846;29;20412;-77
2021/04/30 03:40:46;;;;;;;6.73;5.73;;;6.90;99.90;;;;;;4914271;29;20419;-77
2021/04/30 03:43:12;;;;;;;6.65;5.97;;;6.90;99.90;;;;;;4880037;29;20408;-77
2021/04/30 03:45:37;;;;;;;6.35;5.82;;;6.80;99.90;;;;;;4909115;29;20403;-76
2021/04/30 03:48:03;;;;;;;6.00;5.40;;;6.90;99.90;;;;;;4911956;29;20423;-77
2021/04/30 03:50:29;;;;;;;6.10;5.50;;;6.80;99.90;;;;;;4897010;29;20411;-77
2021/04/30 03:52:55;;;;;;;6.70;6.00;;;6.80;99.90;;;;;;4920177;29;20791;-77
2021/04/30 03:55:20;;;;;;;6.07;5.47;;;6.90;99.90;;;;;;4912547;29;20763;-77
2021/04/30 03:57:46;;;;;;;6.47;5.85;;;6.90;99.90;;;;;;4917561;29;20772;-76
2021/04/30 04:00:12;;;;;;;6.30;5.70;;;6.90;99.90;;;;;;4897674;29;20756;-77
2021/04/30 04:02:41;;;;;;;6.47;5.63;;;6.90;99.90;;;;;;4903778;29;20403;-78
2021/04/30 04:05:07;;;;;;;7.37;6.10;;;6.90;99.90;;;;;;4911776;29;20459;-78
2021/04/30 04:07:32;;;;;;;6.30;5.70;;;6.90;99.90;;;;;;4897905;29;20416;-78
2021/04/30 04:09:58;;;;;;;8.15;6.63;;;6.90;99.90;;;;;;4905183;29;20463;-77
2021/04/30 04:12:24;;;;;;;6.00;5.50;;;6.90;99.90;;;;;;4909610;29;20400;-77
2021/04/30 04:14:49;;;;;;;5.50;5.00;;;6.90;99.90;;;;;;4916627;29;20579;-77
2021/04/30 04:17:16;;;;;;;6.07;5.47;;;6.90;99.90;;;;;;4903534;29;21129;-77
2021/04/30 04:19:48;;;;;;;7.60;6.65;;;6.90;99.90;;;;;;4923367;29;20399;-76
2021/04/30 04:22:14;;;;;;;7.00;5.78;;;6.90;99.90;;;;;;4882624;29;20403;-76
2021/04/30 04:24:40;;;;;;;6.00;5.50;;;6.90;99.90;;;;;;4918391;29;20920;-77
2021/04/30 04:27:06;;;;;;;6.50;5.90;;;6.90;99.90;;;;;;4898862;29;20407;-77
2021/04/30 04:29:31;;;;;;;6.07;5.47;;;6.90;99.90;;;;;;4906752;29;20796;-77
2021/04/30 04:31:57;;;;;;;8.98;6.28;;;6.90;99.90;;;;;;4913465;29;20419;-77
2021/04/30 04:34:23;;;;;;;6.47;5.87;;;7.00;99.90;;;;;;4899071;29;20431;-77
2021/04/30 04:36:48;;;;;;;6.30;5.63;;;7.00;99.90;;;;;;4907723;29;20439;-77
2021/04/30 04:39:14;;;;;;;6.77;6.17;;;7.00;99.90;;;;;;4902668;29;20410;-78
2021/04/30 04:41:39;;;;;;;6.28;5.72;;;7.00;99.90;;;;;;4914057;29;20404;-77
2021/04/30 04:44:05;;;;;;;6.85;6.15;;;7.00;99.90;;;;;;4897139;29;20411;-78
2021/04/30 04:46:31;;;;;;;8.83;6.50;;;7.00;99.90;;;;;;4912119;29;20418;-77
2021/04/30 04:48:57;;;;;;;6.93;6.20;;;7.10;99.90;;;;;;4913209;29;20470;-77
2021/04/30 04:51:22;;;;;;;6.03;5.53;;;7.10;99.90;;;;;;4905314;29;20423;-78
2021/04/30 04:53:48;;;;;;;6.77;6.07;;;7.10;99.90;;;;;;4915635;29;20403;-78
2021/04/30 04:56:14;;;;;;;6.30;5.70;;;7.10;99.90;;;;;;4917709;29;20416;-78
2021/04/30 04:58:39;;;;;;;6.10;5.43;;;7.20;99.90;;;;;;4898907;29;20403;-77
2021/04/30 05:01:06;;;;;;;6.55;5.82;;;7.20;99.90;;;;;;4880273;29;20459;-77
2021/04/30 05:03:32;;;;;;;6.60;5.88;;;7.20;99.90;;;;;;4909939;29;20921;-77
2021/04/30 05:05:57;;;;;;;6.37;5.77;;;7.20;99.90;;;;;;4895957;29;20404;-77
2021/04/30 05:08:23;;;;;;;7.03;5.82;;;7.20;99.90;;;;;;4915644;29;21105;-78
2021/04/30 05:10:48;;;;;;;6.27;5.67;;;7.30;99.90;;;;;;4882356;29;21004;-77
2021/04/30 05:13:14;;;;;;;6.37;5.77;;;7.30;99.90;;;;;;4899987;29;20784;-76
2021/04/30 05:15:40;;;;;;;6.63;6.03;;;7.30;99.90;;;;;;4896535;29;20960;-78
2021/04/30 05:18:05;;;;;;;7.60;6.13;;;7.30;99.90;;;;;;4901008;29;20758;-78
2021/04/30 05:20:31;;;;;;;6.20;5.18;;;7.30;99.90;;;;;;4913728;29;20795;-77
2021/04/30 05:22:56;;;;;;;6.47;5.80;;;7.30;99.90;;;;;;4915379;29;20400;-77
2021/04/30 05:25:22;;;;;;;5.68;5.18;;;7.30;99.90;;;;;;4897730;29;20416;-78
2021/04/30 05:27:48;;;;;;;6.43;5.78;;;7.40;99.90;;;;;;4898284;29;20442;-78
2021/04/30 05:30:14;;;;;;;6.67;6.07;;;7.40;99.90;;;;;;4910489;29;20432;-78
2021/04/30 05:32:40;;;;;;;6.10;5.50;;;7.40;99.90;;;;;;4900041;29;20419;-78
2021/04/30 05:35:06;;;;;;;7.82;6.05;;;7.40;99.90;;;;;;4912317;29;20479;-77
2021/04/30 05:37:31;;;;;;;7.28;6.00;;;7.50;99.90;;;;;;4917275;29;20457;-78
2021/04/30 05:39:58;;;;;;;7.00;6.10;;;7.50;99.90;;;;;;4900286;29;21097;-76
2021/04/30 05:42:24;;;;;;;7.35;6.15;;;7.50;99.90;;;;;;4911558;29;20402;-76
2021/04/30 05:44:50;;;;;;;5.68;5.18;;;7.50;99.90;;;;;;4878022;29;20417;-78
2021/04/30 05:47:16;;;;;;;6.70;6.07;;;7.50;99.90;;;;;;4906338;29;20920;-77
2021/04/30 05:49:42;;;;;;;6.22;5.63;;;7.50;99.90;;;;;;4911661;29;20407;-77
2021/04/30 05:52:07;;;;;;;6.40;5.30;;;7.50;99.90;;;;;;4896937;29;20405;-78
2021/04/30 05:54:33;;;;;;;6.40;5.80;;;7.60;99.90;;;;;;4920505;29;20402;-78
2021/04/30 05:56:58;;;;;;;6.38;5.78;;;7.60;99.90;;;;;;4931516;28;20418;-77
2021/04/30 05:59:24;;;;;;;6.93;5.90;;;7.60;99.90;;;;;;4915348;29;20407;-78
2021/04/30 06:01:50;;;;;;;6.20;5.60;;;7.60;99.90;;;;;;4894862;29;20806;-78
2021/04/30 06:04:16;;;;;;;6.03;5.43;;;7.60;99.90;;;;;;4919049;29;20483;-77
2021/04/30 06:06:42;;;;;;;6.63;5.97;;;7.70;99.90;;;;;;4912016;29;20905;-79
2021/04/30 06:09:07;;;;;;;6.37;5.70;;;7.70;99.90;;;;;;4899692;29;20467;-78
2021/04/30 06:11:33;;;;;;;6.50;5.90;;;7.70;99.90;;;;;;4911353;29;20976;-78
2021/04/30 06:13:59;;;;;;;6.50;5.80;;;7.80;99.90;;;;;;4911011;29;20429;-78
2021/04/30 06:16:24;;;;;;;6.63;5.93;;;7.70;99.90;;;;;;4899429;29;20777;-77
2021/04/30 06:18:50;;;;;;;6.85;5.43;;;7.70;99.90;;;;;;4902537;29;20404;-78
2021/04/30 06:21:15;;;;;;;6.20;5.60;;;7.80;99.90;;;;;;4918460;29;20402;-77
2021/04/30 06:23:41;;;;;;;6.57;5.93;;;7.80;99.90;;;;;;4879729;29;20436;-78
2021/04/30 06:26:07;;;;;;;6.03;5.53;;;7.90;99.90;;;;;;4877515;29;21504;-77
2021/04/30 06:28:33;;;;;;;5.70;5.10;;;7.90;99.90;;;;;;4895912;29;20486;-77
2021/04/30 06:30:59;;;;;;;5.93;5.40;;;8.00;99.90;;;;;;4910816;29;20835;-77
2021/04/30 06:33:24;;;;;;;6.20;5.60;;;8.00;99.90;;;;;;4897273;29;20471;-77
2021/04/30 06:35:50;;;;;;;6.23;5.67;;;8.00;99.90;;;;;;4920641;29;20541;-78
2021/04/30 06:38:15;;;;;;;6.07;5.50;;;8.10;99.90;;;;;;4885559;29;20909;-76
2021/04/30 06:40:41;;;;;;;6.53;5.90;;;8.10;99.90;;;;;;4913372;29;20810;-77
2021/04/30 06:43:07;;;;;;;8.52;5.63;;;8.10;99.90;;;;;;4894571;29;20752;-77
2021/04/30 06:45:33;;;;;;;6.97;6.00;;;8.20;99.90;;;;;;4911072;29;20448;-78
2021/04/30 06:47:58;;;;;;;7.07;5.70;;;8.10;99.90;;;;;;4907121;29;20500;-77
2021/04/30 06:50:24;;;;;;;6.00;5.40;;;8.10;99.90;;;;;;4911372;29;20412;-77
2021/04/30 06:52:52;;;;;;;7.97;5.75;;;8.20;99.90;;;;;;4913487;29;20410;-78
2021/04/30 06:55:18;;;;;;;6.50;5.90;;;8.20;99.90;;;;;;4908798;29;20772;-77
2021/04/30 06:57:44;;;;;;;7.20;5.82;;;8.30;99.90;;;;;;4914660;29;20410;-78
2021/04/30 07:00:10;;;;;;;6.00;5.40;;;8.30;99.90;;;;;;4882177;29;20924;-77
2021/04/30 07:02:36;;;;;;;6.70;6.05;;;8.50;99.90;;;;;;4913362;29;20505;-77
2021/04/30 07:05:01;;;;;;;7.38;5.82;;;8.50;99.90;;;;;;4898171;29;20435;-78
2021/04/30 07:07:27;;;;;;;6.13;5.63;;;8.70;99.90;;;;;;4912582;29;20920;-77
2021/04/30 07:09:53;;;;;;;6.63;5.97;;;8.70;99.90;;;;;;4909638;29;20494;-78
2021/04/30 07:12:21;;;;;;;7.28;5.85;;;8.70;99.90;;;;;;4912171;29;20466;-78
2021/04/30 07:14:47;;;;;;;8.05;6.40;;;8.80;99.90;;;;;;4912133;29;20400;-78
2021/04/30 07:17:13;;;;;;;6.03;5.47;;;8.70;99.90;;;;;;4876174;29;20414;-78
2021/04/30 07:19:38;;;;;;;7.47;6.30;;;8.70;99.90;;;;;;4897676;29;20412;-77
2021/04/30 07:22:09;;;;;;;7.23;6.37;;;8.80;99.90;;;;;;4914045;29;20405;-77
2021/04/30 07:24:35;;;;;;;6.55;5.88;;;8.90;99.90;;;;;;4894944;29;20448;-76
2021/04/30 07:27:00;;;;;;;6.65;6.05;;;8.80;99.90;;;;;;4879083;29;20482;-77
2021/04/30 07:29:26;;;;;;;6.30;5.70;;;8.90;99.90;;;;;;4914402;29;20412;-77
2021/04/30 07:31:55;;;;;;;7.72;6.43;;;8.90;99.90;;;;;;4916015;29;20409;-77
2021/04/30 07:34:20;;;;;;;6.90;6.17;;;9.10;99.90;;;;;;4910354;29;20407;-77
2021/04/30 07:36:46;;;;;;;6.23;5.63;;;9.30;99.90;;;;;;4893380;29;20439;-78
2021/04/30 07:39:12;;;;;;;7.07;6.03;;;9.50;99.90;;;;;;4897361;29;20399;-77
2021/04/30 07:41:37;;;;;;;6.80;6.10;;;9.70;99.90;;;;;;4903958;29;20398;-77
2021/04/30 07:44:03;;;;;;;6.60;6.00;;;9.90;99.90;;;;;;4917359;29;20408;-78
2021/04/30 07:46:29;;;;;;;7.43;6.00;;;10.10;99.90;;;;;;4928416;29;20817;-77
2021/04/30 07:48:54;;;;;;;6.68;5.80;;;10.30;99.90;;;;;;4916630;29;20487;-79
2021/04/30 07:51:20;;;;;;;7.03;6.27;;;10.30;99.90;;;;;;4905330;29;20438;-78
2021/04/30 07:53:45;;;;;;;7.75;5.90;;;10.20;99.90;;;;;;4899684;29;20438;-77
2021/04/30 07:56:12;;;;;;;5.97;5.37;;;10.20;99.90;;;;;;4902302;29;20416;-78
2021/04/30 07:58:38;;;;;;;6.75;5.78;;;10.20;99.90;;;;;;4922550;29;20490;-78
2021/04/30 08:01:03;;;;;;;6.67;5.40;;;10.30;99.90;;;;;;4901105;29;20482;-78
2021/04/30 08:03:29;;;;;;;5.87;5.30;;;10.30;99.90;;;;;;4881823;29;20407;-77
2021/04/30 08:05:55;;;;;;;6.43;5.63;;;10.30;99.90;;;;;;4906747;29;20403;-77
2021/04/30 08:08:20;;;;;;;5.50;4.90;;;10.40;99.90;;;;;;4902714;29;20974;-77
2021/04/30 08:10:46;;;;;;;5.78;5.22;;;10.50;99.90;;;;;;4883049;29;20489;-77
2021/04/30 08:13:12;;;;;;;6.87;5.33;;;10.70;99.90;;;;;;4896937;29;20412;-78
2021/04/30 08:15:38;;;;;;;6.20;5.60;;;10.90;99.90;;;;;;4902000;29;20618;-77
2021/04/30 08:18:03;;;;;;;6.68;5.40;;;11.10;99.90;;;;;;4906661;29;20413;-77
2021/04/30 08:20:29;;;;;;;4.47;4.07;;;11.30;99.90;;;;;;4883810;29;20495;-77
2021/04/30 08:22:55;;;;;;;5.22;4.75;;;11.30;99.90;;;;;;4917828;29;21232;-77
2021/04/30 08:25:21;;;;;;;5.70;4.97;;;11.20;99.90;;;;;;4916380;29;20933;-76
2021/04/30 08:27:46;;;;;;;5.50;5.00;;;11.40;99.90;;;;;;4921871;29;20496;-78
2021/04/30 08:30:13;;;;;;;5.35;4.85;;;11.40;99.90;;;;;;4932005;29;20416;-76
2021/04/30 08:32:38;;;;;;;5.00;4.60;;;11.40;99.90;;;;;;4897804;29;20406;-77
2021/04/30 08:35:04;;;;;;;5.87;5.00;;;11.30;99.90;;;;;;4881555;29;20453;-78
2021/04/30 08:37:30;;;;;;;4.55;4.00;;;11.30;99.90;;;;;;4899274;29;20426;-78
2021/04/30 08:39:57;;;;;;;4.63;4.27;;;11.20;99.90;;;;;;4927747;29;21092;-77
2021/04/30 08:42:22;;;;;;;4.93;4.43;;;11.10;99.90;;;;;;4915089;29;20469;-78
2021/04/30 08:44:48;;;;;;;4.70;4.30;;;11.20;99.90;;;;;;4913987;29;20793;-77
2021/04/30 08:47:17;;;;;;;7.53;5.45;;;11.00;99.90;;;;;;4920290;29;20486;-78
2021/04/30 08:49:43;;;;;;;5.45;4.72;;;10.90;99.90;;;;;;4900431;29;20406;-78
2021/04/30 08:52:10;;;;;;;5.03;4.53;;;10.90;99.90;;;;;;4899743;29;20827;-78
2021/04/30 08:54:37;;;;;;;5.00;4.50;;;10.80;99.90;;;;;;4900828;29;20464;-78
2021/04/30 08:57:05;;;;;;;4.88;4.45;;;10.80;99.90;;;;;;4906051;29;20398;-77
2021/04/30 08:59:31;;;;;;;6.22;4.68;;;10.70;99.90;;;;;;4903100;29;20433;-78
2021/04/30 09:01:56;;;;;;;5.25;4.35;;;10.50;99.90;;;;;;4897958;29;20503;-77
2021/04/30 09:04:23;;;;;;;4.32;3.92;;;10.60;99.90;;;;;;4905644;29;20406;-78
2021/04/30 09:06:48;;;;;;;6.68;4.72;;;10.50;99.90;;;;;;4894145;29;20418;-77
2021/04/30 09:09:16;;;;;;;4.67;4.20;;;10.50;99.90;;;;;;4904161;29;20396;-77
2021/04/30 09:11:43;;;;;;;4.03;3.70;;;10.40;99.90;;;;;;4912480;29;20412;-78
2021/04/30 09:14:35;;;;;;;4.37;3.97;;;10.30;99.90;;;;;;4898062;29;20434;-78
2021/04/30 09:17:17;;;;;;;5.10;4.60;;;10.30;99.90;;;;;;4911815;29;20494;-77
2021/04/30 09:19:47;;;;;;;4.88;4.45;;;10.20;99.90;;;;;;4897589;29;20514;-78
2021/04/30 09:22:12;;;;;;;4.53;4.13;;;10.20;99.90;;;;;;4925698;29;20416;-78
2021/04/30 09:24:38;;;;;;;4.82;4.35;;;10.20;99.90;;;;;;4902503;29;21008;-77
2021/04/30 09:27:05;;;;;;;4.63;4.22;;;10.10;99.90;;;;;;4872150;29;20419;-78
2021/04/30 09:29:35;;;;;;;5.20;4.53;;;10.10;99.90;;;;;;4890325;29;20423;-78
2021/04/30 09:32:01;;;;;;;4.93;4.53;;;10.20;99.90;;;;;;4896998;29;20443;-78
2021/04/30 09:34:31;;;;;;;4.50;4.10;;;10.20;99.90;;;;;;4898042;29;20465;-78
2021/04/30 09:37:13;;;;;;;4.43;4.03;;;10.30;99.90;;;;;;4899191;29;20927;-78
2021/04/30 09:39:58;;;;;;;5.00;4.50;;;10.30;99.90;;;;;;4906672;29;20999;-78
2021/04/30 09:42:26;;;;;;;4.13;3.73;;;10.40;99.90;;;;;;4891965;29;20424;-78
2021/04/30 09:44:53;;;;;;;4.35;3.95;;;10.40;99.90;;;;;;4910899;29;20527;-77
2021/04/30 09:47:25;;;;;;;4.03;3.65;;;10.30;99.90;;;;;;4910694;29;21062;-78
2021/04/30 09:49:53;;;;;;;4.43;4.03;;;10.30;99.90;;;;;;4911456;29;21921;-77
2021/04/30 09:52:19;;;;;;;4.22;3.92;;;10.40;99.90;;;;;;4900801;29;20423;-78
2021/04/30 09:54:45;;;;;;;4.35;3.95;;;10.50;99.90;;;;;;4894186;29;21887;-77
2021/04/30 09:57:11;;;;;;;4.80;4.38;;;10.50;99.90;;;;;;4894784;29;20421;-77
2021/04/30 09:59:38;;;;;;;5.47;4.80;;;10.50;99.90;;;;;;4930353;29;20816;-77
2021/04/30 10:02:05;;;;;;;4.60;4.20;;;10.50;99.90;;;;;;4880610;29;20404;-76
2021/04/30 10:04:33;;;;;;;4.63;4.22;;;10.50;99.90;;;;;;4897370;29;20410;-77
2021/04/30 10:06:59;;;;;;;4.28;3.95;;;10.60;99.90;;;;;;4914340;29;20417;-77
2021/04/30 10:09:26;;;;;;;4.50;4.10;;;10.60;99.90;;;;;;4916896;29;20490;-76
2021/04/30 10:11:52;;;;;;;4.70;4.30;;;10.60;99.90;;;;;;4905391;29;20757;-77
2021/04/30 10:14:18;;;;;;;4.63;4.17;;;10.60;99.90;;;;;;4902261;29;20398;-77
2021/04/30 10:16:43;;;;;;;4.47;4.07;;;10.60;99.90;;;;;;4910503;29;20490;-77
2021/04/30 10:19:09;;;;;;;4.03;3.73;;;10.50;99.90;;;;;;4896030;29;20459;-77
2021/04/30 10:21:38;;;;;;;4.60;4.20;;;10.60;99.90;;;;;;4906258;29;20415;-76
2021/04/30 10:24:04;;;;;;;4.25;3.95;;;10.50;99.90;;;;;;4895892;29;20410;-77
2021/04/30 10:26:31;;;;;;;4.10;3.80;;;10.50;99.90;;;;;;4910422;29;20432;-77
2021/04/30 10:28:57;;;;;;;4.50;4.10;;;10.50;99.90;;;;;;4911062;29;20861;-77
2021/04/30 10:31:27;;;;;;;4.67;4.20;;;10.40;99.90;;;;;;4895061;29;20490;-78
2021/04/30 10:34:11;;;;;;;4.50;4.10;;;10.40;99.90;;;;;;4911429;29;20435;-77
2021/04/30 10:36:42;;;;;;;4.60;4.20;;;10.30;99.90;;;;;;4910380;29;20428;-77
2021/04/30 10:39:08;;;;;;;4.22;3.83;;;10.30;99.90;;;;;;4880750;29;20404;-77
2021/04/30 10:41:37;;;;;;;4.28;3.88;;;10.30;99.90;;;;;;4884169;29;20423;-77
2021/04/30 10:44:21;;;;;;;4.50;4.10;;;10.30;99.90;;;;;;4909031;29;20419;-78
2021/04/30 10:46:48;;;;;;;4.22;3.83;;;10.20;99.90;;;;;;4909466;29;20913;-77
2021/04/30 10:49:21;;;;;;;3.60;3.30;;;10.20;99.90;;;;;;4908951;29;20441;-78
2021/04/30 10:52:05;;;;;;;3.75;3.35;;;10.10;99.90;;;;;;4914749;29;20443;-77
2021/04/30 10:54:34;;;;;;;3.28;2.97;;;10.00;99.90;;;;;;4926950;29;20414;-78
2021/04/30 10:57:07;;;;;;;6.05;4.57;;;10.00;99.90;;;;;;4889935;29;20420;-78
2021/04/30 10:59:36;;;;;;;20.27;14.68;;;9.90;99.90;;;;;;4908673;29;20431;-78
2021/04/30 11:02:11;;;;;;;6.65;5.85;;;9.90;99.90;;;;;;4905887;29;20466;-78
2021/04/30 11:04:36;;;;;;;15.90;11.13;;;9.90;99.90;;;;;;4905255;29;20492;-78
2021/04/30 11:07:03;;;;;;;2.93;2.73;;;9.80;99.90;;;;;;4878136;29;20504;-77
2021/04/30 11:09:32;;;;;;;6.00;4.80;;;9.90;99.90;;;;;;4893406;29;20998;-78
2021/04/30 11:11:59;;;;;;;3.57;3.20;;;9.90;99.90;;;;;;4894795;29;20917;-78
2021/04/30 11:14:26;;;;;;;2.93;2.73;;;9.80;99.90;;;;;;4896960;29;20479;-78
2021/04/30 11:16:53;;;;;;;3.80;3.50;;;9.70;99.90;;;;;;4910088;29;20419;-78
2021/04/30 11:19:19;;;;;;;2.97;2.78;;;9.60;99.90;;;;;;4901786;29;20405;-78
2021/04/30 11:21:47;;;;;;;3.13;2.83;;;9.50;99.90;;;;;;4912293;29;20981;-78
2021/04/30 11:24:28;;;;;;;2.97;2.78;;;9.60;99.90;;;;;;4887976;29;21066;-77
2021/04/30 11:27:17;;;;;;;3.00;2.80;;;9.60;99.90;;;;;;4918171;29;20418;-78
2021/04/30 11:29:42;;;;;;;3.55;2.88;;;9.60;99.90;;;;;;4888307;29;20444;-78
2021/04/30 11:32:23;;;;;;;3.15;2.90;;;9.60;99.90;;;;;;4897178;29;20425;-77
2021/04/30 11:34:57;;;;;;;2.90;2.60;;;9.70;99.90;;;;;;4895306;29;20422;-78
2021/04/30 11:37:23;;;;;;;3.00;2.80;;;9.70;99.90;;;;;;4905694;29;20516;-78
2021/04/30 11:39:53;;;;;;;2.90;2.70;;;9.60;99.90;;;;;;4897085;29;20490;-77
2021/04/30 11:42:18;;;;;;;2.83;2.60;;;9.60;99.90;;;;;;4898519;29;20937;-78
2021/04/30 11:44:44;;;;;;;2.90;2.60;;;9.60;99.90;;;;;;4912255;29;20403;-78
2021/04/30 11:47:18;;;;;;;3.00;2.80;;;9.60;99.90;;;;;;4882899;29;21119;-77
2021/04/30 11:49:43;;;;;;;2.40;2.20;;;9.40;99.90;;;;;;4913802;29;20451;-77
2021/04/30 11:52:13;;;;;;;3.08;2.72;;;9.60;99.90;;;;;;4898239;29;20411;-77
2021/04/30 11:54:39;;;;;;;2.85;2.63;;;9.60;99.90;;;;;;4909504;29;20456;-77
2021/04/30 11:57:11;;;;;;;3.03;2.70;;;9.60;99.90;;;;;;4919862;29;20421;-78
2021/04/30 11:59:38;;;;;;;3.40;3.10;;;9.70;99.90;;;;;;4889584;29;20421;-77
2021/04/30 12:02:06;;;;;;;3.03;2.72;;;9.80;99.90;;;;;;4896224;29;20411;-78
2021/04/30 12:04:39;;;;;;;3.50;2.72;;;9.90;99.90;;;;;;4900018;29;20835;-78
2021/04/30 12:07:05;;;;;;;2.80;2.60;;;10.00;99.90;;;;;;4912249;29;20411;-77
2021/04/30 12:09:30;;;;;;;3.17;2.88;;;10.00;99.90;;;;;;4891147;29;20431;-77
2021/04/30 12:12:18;;;;;;;2.90;2.70;;;10.00;99.90;;;;;;4885887;29;20415;-77
2021/04/30 12:14:48;;;;;;;2.72;2.50;;;10.00;99.90;;;;;;4891148;29;20417;-78
2021/04/30 12:17:26;;;;;;;3.27;2.60;;;9.90;99.90;;;;;;4904740;29;20431;-77
2021/04/30 12:19:56;;;;;;;2.33;2.17;;;10.00;99.90;;;;;;4915958;29;20430;-78
2021/04/30 12:22:21;;;;;;;3.03;2.20;;;10.00;99.90;;;;;;4894604;29;20420;-77
2021/04/30 12:24:47;;;;;;;3.28;2.53;;;10.00;99.90;;;;;;4894772;29;20417;-76
2021/04/30 12:27:31;;;;;;;2.83;2.60;;;9.90;99.90;;;;;;4913468;29;20443;-77
2021/04/30 12:29:56;;;;;;;2.20;2.05;;;9.90;99.90;;;;;;4895477;29;20490;-76
2021/04/30 12:32:26;;;;;;;2.03;1.92;;;9.90;99.90;;;;;;4916218;29;20423;-78
2021/04/30 12:34:52;;;;;;;2.20;2.10;;;9.90;99.90;;;;;;4897208;29;20422;-77
2021/04/30 12:37:18;;;;;;;2.67;2.40;;;9.90;99.90;;;;;;4911121;29;20420;-78
2021/04/30 12:39:44;;;;;;;2.57;2.37;;;9.90;99.90;;;;;;4931758;29;20422;-78
2021/04/30 12:42:09;;;;;;;2.53;2.33;;;9.90;99.90;;;;;;4895596;29;20427;-77
2021/04/30 12:44:35;;;;;;;2.20;2.10;;;9.90;99.90;;;;;;4894094;29;20408;-78
2021/04/30 12:47:04;;;;;;;2.50;2.30;;;10.00;99.90;;;;;;4932999;29;20439;-77
2021/04/30 12:49:34;;;;;;;2.78;2.35;;;10.10;99.90;;;;;;4897896;29;20418;-77
2021/04/30 12:51:59;;;;;;;2.15;2.05;;;10.20;99.90;;;;;;4921693;29;20422;-77